createdAt,value
2022-08-09T00:00:57.976Z,93.93
2022-08-09T00:04:10.533Z,93.13
2022-08-09T00:06:17.655Z,93.07
2022-08-09T00:08:51.887Z,92.97
2022-08-09T00:11:24.308Z,93.88
2022-08-09T00:13:53.130Z,95.38
2022-08-09T00:16:26.248Z,97.26
2022-08-09T00:19:09.588Z,97.40
2022-08-09T00:21:55.692Z,95.60
2022-08-09T00:24:27.854Z,95.84
2022-08-09T00:26:57.207Z,96.85
2022-08-09T00:29:39.444Z,97.50
2022-08-09T00:32:14.410Z,97.04
2022-08-09T00:34:53.631Z,94.60
2022-08-09T00:37:21.473Z,94.79
2022-08-09T00:40:12.037Z,93.79
2022-08-09T00:44:15.500Z,92.35
2022-08-09T00:45:24.945Z,94.34
2022-08-09T00:47:53.422Z,94.02
2022-08-09T00:50:25.369Z,94.16
2022-08-09T00:52:55.365Z,93.83
2022-08-09T00:56:04.119Z,93.39
2022-08-09T00:58:14.866Z,93.51
2022-08-09T01:00:55.517Z,94.56
2022-08-09T01:03:49.091Z,94.56
2022-08-09T01:06:53.299Z,95.22
2022-08-09T01:09:35.926Z,96.10
2022-08-09T01:12:29.310Z,97.54
2022-08-09T01:15:16.895Z,98.79
2022-08-09T01:17:57.633Z,99.13
2022-08-09T01:21:03.443Z,98.35
2022-08-09T01:24:02.715Z,98.55
2022-08-09T01:26:42.987Z,98.30
2022-08-09T01:29:17.222Z,96.72
2022-08-09T01:32:30.960Z,96.66
2022-08-09T01:34:39.298Z,96.63
2022-08-09T01:37:13.278Z,98.30
2022-08-09T01:39:44.634Z,98.78
2022-08-09T01:42:13.550Z,99.98
2022-08-09T01:44:43.132Z,99.71
2022-08-09T01:47:13.606Z,100.00
2022-08-09T01:49:50.022Z,100.00
2022-08-09T01:52:21.041Z,100.00
2022-08-09T01:54:54.363Z,100.00
2022-08-09T01:57:45.733Z,99.47
2022-08-09T02:00:34.368Z,99.82
2022-08-09T02:03:05.206Z,100.00
2022-08-09T02:05:43.965Z,100.00
2022-08-09T02:08:40.185Z,100.00
2022-08-09T02:11:17.114Z,100.00
2022-08-09T02:14:02.143Z,100.00
2022-08-09T02:16:59.040Z,100.00
2022-08-09T02:19:38.949Z,100.00
2022-08-09T02:22:27.350Z,100.00
2022-08-09T02:25:07.989Z,100.00
2022-08-09T02:27:58.178Z,100.00
2022-08-09T02:30:31.847Z,100.00
2022-08-09T02:33:00.986Z,100.00
2022-08-09T02:36:03.279Z,100.00
2022-08-09T02:38:28.898Z,100.00
2022-08-09T02:41:10.496Z,100.00
2022-08-09T02:43:47.733Z,100.00
2022-08-09T02:46:27.439Z,100.00
2022-08-09T02:49:03.020Z,100.00
2022-08-09T02:51:40.141Z,100.00
2022-08-09T02:54:13.980Z,100.00
2022-08-09T02:56:51.346Z,100.00
2022-08-09T02:59:26.547Z,100.00
2022-08-09T03:02:09.715Z,100.00
2022-08-09T03:04:46.713Z,100.00
2022-08-09T03:07:20.101Z,100.00
2022-08-09T03:09:54.302Z,100.00
2022-08-09T03:12:27.270Z,100.00
2022-08-09T03:14:56.696Z,100.00
2022-08-09T03:17:27.203Z,100.00
2022-08-09T03:20:03.343Z,100.00
2022-08-09T03:22:41.299Z,100.00
2022-08-09T03:25:21.754Z,100.00
2022-08-09T03:28:01.586Z,100.00
2022-08-09T03:30:34.145Z,100.00
2022-08-09T03:33:17.629Z,100.00
2022-08-09T03:36:13.287Z,100.00
2022-08-09T03:38:43.154Z,100.00
2022-08-09T03:41:16.670Z,100.00
2022-08-09T03:44:03.739Z,100.00
2022-08-09T03:46:35.557Z,100.00
2022-08-09T03:49:08.686Z,100.00
2022-08-09T03:51:43.952Z,100.00
2022-08-09T03:54:31.643Z,100.00
2022-08-09T03:57:04.353Z,100.00
2022-08-09T03:59:55.056Z,100.00
2022-08-09T04:02:27.911Z,100.00
2022-08-09T04:04:59.131Z,100.00
2022-08-09T04:07:46.962Z,100.00
2022-08-09T04:10:18.272Z,100.00
2022-08-09T04:12:51.215Z,100.00
2022-08-09T04:15:42.728Z,100.00
2022-08-09T04:18:16.421Z,100.00
2022-08-09T04:20:48.896Z,100.00
2022-08-09T04:23:17.757Z,100.00
2022-08-09T04:25:51.866Z,100.00
2022-08-09T04:28:31.345Z,100.00
2022-08-09T04:31:07.690Z,100.00
2022-08-09T04:33:51.777Z,100.00
2022-08-09T04:36:24.540Z,100.00
2022-08-09T04:38:53.819Z,100.00
2022-08-09T04:41:23.693Z,100.00
2022-08-09T04:44:04.964Z,100.00
2022-08-09T04:46:57.473Z,100.00
2022-08-09T04:49:40.885Z,100.00
2022-08-09T04:52:18.425Z,100.00
2022-08-09T04:54:52.265Z,100.00
2022-08-09T04:57:21.601Z,100.00
2022-08-09T04:59:55.763Z,100.00
2022-08-09T05:02:27.549Z,100.00
2022-08-09T05:04:56.270Z,100.00
2022-08-09T05:07:25.177Z,100.00
2022-08-09T05:09:57.840Z,100.00
2022-08-09T05:12:30.920Z,100.00
2022-08-09T05:14:58.875Z,100.00
2022-08-09T05:18:50.918Z,100.00
2022-08-09T05:20:14.257Z,100.00
2022-08-09T05:23:55.200Z,100.00
2022-08-09T05:25:32.529Z,100.00
2022-08-09T05:28:00.648Z,99.25
2022-08-09T05:30:30.054Z,97.94
2022-08-09T05:33:00.779Z,98.88
2022-08-09T05:35:29.787Z,98.92
2022-08-09T05:37:59.972Z,100.00
2022-08-09T05:40:29.367Z,100.00
2022-08-09T05:42:57.776Z,100.00
2022-08-09T05:45:25.810Z,100.00
2022-08-09T05:48:13.888Z,100.00
2022-08-09T05:50:51.345Z,100.00
2022-08-09T05:53:33.986Z,100.00
2022-08-09T05:56:04.332Z,99.51
2022-08-09T05:58:33.040Z,99.29
2022-08-09T06:01:00.708Z,99.39
2022-08-09T06:03:34.839Z,99.60
2022-08-09T06:06:12.392Z,98.48
2022-08-09T06:08:40.436Z,95.84
2022-08-09T06:11:16.479Z,95.72
2022-08-09T06:13:47.474Z,95.37
2022-08-09T06:16:16.392Z,95.64
2022-08-09T06:18:44.940Z,95.39
2022-08-09T06:21:12.665Z,95.05
2022-08-09T06:23:55.185Z,95.72
2022-08-09T06:26:28.143Z,95.40
2022-08-09T06:29:00.591Z,95.17
2022-08-09T06:31:39.954Z,95.24
2022-08-09T06:34:26.055Z,95.93
2022-08-09T06:36:59.707Z,96.23
2022-08-09T06:39:57.489Z,95.89
2022-08-09T06:42:20.237Z,94.93
2022-08-09T06:44:54.223Z,94.73
2022-08-09T06:47:23.723Z,95.45
2022-08-09T06:50:13.636Z,97.01
2022-08-09T06:52:46.930Z,94.48
2022-08-09T06:55:17.677Z,93.22
2022-08-09T06:58:03.244Z,93.07
2022-08-09T07:00:49.648Z,93.63
2022-08-09T07:03:27.022Z,92.90
2022-08-09T07:06:03.920Z,94.21
2022-08-09T07:08:35.315Z,92.07
2022-08-09T07:11:06.580Z,88.82
2022-08-09T07:13:45.347Z,88.30
2022-08-09T07:16:43.973Z,89.07
2022-08-09T07:19:15.433Z,88.49
2022-08-09T07:21:55.533Z,89.18
2022-08-09T07:24:32.027Z,89.26
2022-08-09T07:27:26.857Z,88.42
2022-08-09T07:30:00.448Z,88.96
2022-08-09T07:32:32.521Z,87.84
2022-08-09T07:35:10.824Z,85.14
2022-08-09T07:37:43.891Z,85.70
2022-08-09T07:40:18.675Z,85.78
2022-08-09T07:42:57.137Z,87.10
2022-08-09T07:45:37.094Z,86.83
2022-08-09T07:48:07.240Z,83.19
2022-08-09T07:50:36.508Z,82.92
2022-08-09T07:53:05.246Z,81.51
2022-08-09T07:55:41.637Z,83.38
2022-08-09T07:58:26.028Z,81.83
2022-08-09T08:00:58.993Z,81.12
2022-08-09T08:03:36.875Z,83.22
2022-08-09T08:06:05.951Z,84.74
2022-08-09T08:09:00.564Z,84.06
2022-08-09T08:12:10.511Z,81.89
2022-08-09T08:14:09.135Z,80.96
2022-08-09T08:16:39.626Z,82.57
2022-08-09T08:19:18.786Z,83.20
2022-08-09T08:21:52.763Z,82.08
2022-08-09T08:24:21.186Z,81.02
2022-08-09T08:26:56.026Z,80.83
2022-08-09T08:29:27.732Z,79.32
2022-08-09T08:32:04.167Z,79.94
2022-08-09T08:34:34.703Z,80.05
2022-08-09T08:37:05.357Z,80.85
2022-08-09T08:39:39.936Z,81.35
2022-08-09T08:42:12.011Z,81.65
2022-08-09T08:44:42.311Z,83.15
2022-08-09T08:47:14.717Z,81.04
2022-08-09T08:49:47.410Z,78.90
2022-08-09T08:55:08.570Z,76.84
2022-08-09T08:57:37.517Z,75.98
2022-08-09T09:00:17.154Z,75.88
2022-08-09T09:03:08.357Z,76.27
2022-08-09T09:05:59.970Z,75.39
2022-08-09T09:08:40.536Z,73.81
2022-08-09T09:11:13.595Z,68.97
2022-08-09T09:13:56.892Z,69.47
2022-08-09T09:16:34.517Z,70.42
2022-08-09T09:19:37.408Z,71.18
2022-08-09T09:21:58.103Z,71.81
2022-08-09T09:24:31.123Z,69.48
2022-08-09T09:27:02.318Z,68.79
2022-08-09T09:29:57.997Z,69.08
2022-08-09T09:32:34.226Z,66.73
2022-08-09T09:35:07.535Z,65.98
2022-08-09T09:37:40.441Z,65.43
2022-08-09T09:40:11.517Z,64.60
2022-08-09T09:42:39.705Z,64.03
2022-08-09T09:45:14.334Z,63.89
2022-08-09T09:47:58.222Z,64.03
2022-08-09T09:50:51.181Z,62.27
2022-08-09T09:53:44.162Z,62.38
2022-08-09T09:56:31.067Z,62.07
2022-08-09T09:59:00.679Z,61.94
2022-08-09T10:01:31.153Z,61.85
2022-08-09T10:04:15.960Z,62.07
2022-08-09T10:06:47.189Z,61.39
2022-08-09T10:09:23.613Z,61.05
2022-08-09T10:12:14.734Z,59.81
2022-08-09T10:14:48.957Z,60.03
2022-08-09T10:17:51.416Z,60.72
2022-08-09T10:20:26.922Z,60.12
2022-08-09T10:23:24.977Z,60.45
2022-08-09T10:26:06.516Z,60.83
2022-08-09T10:28:38.508Z,59.09
2022-08-09T10:32:27.811Z,58.01
2022-08-09T10:34:10.232Z,57.56
2022-08-09T10:36:45.538Z,57.88
2022-08-09T10:39:15.748Z,56.27
2022-08-09T10:41:47.625Z,59.08
2022-08-09T10:44:23.152Z,57.54
2022-08-09T10:47:28.145Z,56.70
2022-08-09T10:50:53.126Z,53.93
2022-08-09T10:53:55.007Z,52.92
2022-08-09T10:56:25.669Z,52.67
2022-08-09T10:58:55.876Z,51.84
2022-08-09T11:03:16.003Z,51.97
2022-08-09T11:04:30.171Z,51.51
2022-08-09T11:07:00.713Z,51.15
2022-08-09T11:09:38.227Z,50.92
2022-08-09T11:12:26.529Z,50.33
2022-08-09T11:15:02.867Z,50.58
2022-08-09T11:17:31.026Z,50.42
2022-08-09T11:20:12.026Z,49.87
2022-08-09T11:22:55.301Z,50.54
2022-08-09T11:25:45.374Z,50.05
2022-08-09T11:28:34.168Z,50.24
2022-08-09T11:31:34.185Z,50.75
2022-08-09T11:34:11.251Z,51.26
2022-08-09T11:36:44.321Z,52.25
2022-08-09T11:39:12.366Z,53.89
2022-08-09T11:41:40.839Z,52.79
2022-08-09T11:44:09.045Z,51.73
2022-08-09T11:47:11.122Z,52.28
2022-08-09T11:50:53.960Z,51.01
2022-08-09T11:53:57.461Z,51.32
2022-08-09T11:55:52.496Z,51.49
2022-08-09T11:58:30.176Z,51.40
2022-08-09T12:01:08.652Z,49.61
2022-08-09T12:03:55.982Z,49.14
2022-08-09T12:06:32.140Z,50.85
2022-08-09T12:09:17.626Z,52.13
2022-08-09T12:12:02.712Z,52.81
2022-08-09T12:14:37.087Z,53.31
2022-08-09T12:17:27.974Z,53.49
2022-08-09T12:20:16.763Z,51.47
2022-08-09T12:22:56.970Z,50.66
2022-08-09T12:25:35.991Z,50.43
2022-08-09T12:29:14.152Z,52.05
2022-08-09T12:31:59.361Z,52.06
2022-08-09T12:34:09.956Z,52.03
2022-08-09T12:36:58.874Z,51.86
2022-08-09T12:39:58.250Z,51.97
2022-08-09T12:42:26.065Z,52.22
2022-08-09T12:44:54.830Z,52.31
2022-08-09T12:47:23.318Z,52.66
2022-08-09T12:50:10.398Z,53.45
2022-08-09T12:53:07.907Z,53.40
2022-08-09T12:56:15.617Z,53.45
2022-08-09T12:58:24.327Z,51.34
2022-08-09T13:00:56.285Z,51.50
2022-08-09T13:03:57.108Z,51.26
2022-08-09T13:06:44.919Z,52.31
2022-08-09T13:09:25.260Z,51.87
2022-08-09T13:12:01.505Z,51.36
2022-08-09T13:14:42.610Z,52.23
2022-08-09T13:17:44.024Z,52.00
2022-08-09T13:20:16.047Z,50.29
2022-08-09T13:23:01.749Z,50.20
2022-08-09T13:25:52.999Z,49.42
2022-08-09T13:28:34.390Z,49.86
2022-08-09T13:32:14.964Z,49.76
2022-08-09T13:33:58.298Z,49.09
2022-08-09T13:36:41.111Z,49.02
2022-08-09T13:41:55.277Z,49.02
2022-08-09T13:42:10.901Z,49.61
2022-08-09T13:44:43.162Z,49.50
2022-08-09T13:47:25.354Z,49.62
2022-08-09T13:50:02.316Z,49.27
2022-08-09T13:52:30.875Z,48.79
2022-08-09T13:55:04.287Z,49.46
2022-08-09T13:57:39.846Z,49.50
2022-08-09T14:00:13.414Z,47.65
2022-08-09T14:03:03.222Z,49.05
2022-08-09T14:06:00.088Z,46.99
2022-08-09T14:08:19.943Z,46.61
2022-08-09T14:10:52.644Z,46.59
2022-08-09T14:14:15.918Z,46.23
2022-08-09T14:16:14.899Z,46.23
2022-08-09T14:18:49.630Z,45.89
2022-08-09T14:21:24.122Z,46.34
2022-08-09T14:23:56.560Z,46.09
2022-08-09T14:26:33.610Z,46.00
2022-08-09T14:29:08.328Z,46.93
2022-08-09T14:31:55.502Z,46.81
2022-08-09T14:34:31.400Z,47.60
2022-08-09T14:37:06.644Z,47.82
2022-08-09T14:39:46.019Z,48.09
2022-08-09T14:42:30.468Z,48.66
2022-08-09T14:46:40.226Z,48.92
2022-08-09T14:47:59.993Z,48.96
2022-08-09T14:50:34.485Z,49.08
2022-08-09T14:53:11.540Z,49.34
2022-08-09T14:55:47.894Z,49.29
2022-08-09T14:58:19.075Z,50.05
2022-08-09T15:00:48.322Z,50.13
2022-08-09T15:03:19.966Z,50.01
2022-08-09T15:05:52.393Z,50.02
2022-08-09T15:08:24.666Z,49.87
2022-08-09T15:11:00.817Z,50.09
2022-08-09T15:13:56.055Z,50.73
2022-08-09T15:16:18.508Z,50.06
2022-08-09T15:18:49.014Z,50.09
2022-08-09T15:22:01.072Z,50.09
2022-08-09T15:24:12.826Z,49.72
2022-08-09T15:26:46.102Z,50.43
2022-08-09T15:30:56.297Z,51.00
2022-08-09T15:32:03.769Z,50.99
2022-08-09T15:34:35.368Z,50.52
2022-08-09T15:37:24.493Z,50.44
2022-08-09T15:40:11.778Z,50.00
2022-08-09T15:42:42.464Z,48.89
2022-08-09T15:45:12.817Z,49.52
2022-08-09T15:47:52.943Z,51.30
2022-08-09T15:50:29.321Z,50.55
2022-08-09T15:53:06.133Z,50.48
2022-08-09T15:55:59.053Z,51.27
2022-08-09T15:58:26.917Z,50.85
2022-08-09T16:00:56.771Z,49.97
2022-08-09T16:03:29.674Z,50.22
2022-08-09T16:06:07.389Z,51.08
2022-08-09T16:08:56.118Z,51.59
2022-08-09T16:11:23.972Z,51.44
2022-08-09T16:14:04.272Z,51.13
2022-08-09T16:16:41.938Z,51.21
2022-08-09T16:19:14.004Z,50.74
2022-08-09T16:21:51.783Z,50.57
2022-08-09T16:24:32.998Z,50.28
2022-08-09T16:27:05.031Z,50.02
2022-08-09T16:29:37.690Z,50.01
2022-08-09T16:32:34.059Z,50.25
2022-08-09T16:35:06.726Z,50.10
2022-08-09T16:37:53.959Z,50.22
2022-08-09T16:40:40.360Z,50.11
2022-08-09T16:43:09.331Z,51.51
2022-08-09T16:45:44.430Z,54.02
2022-08-09T16:48:41.364Z,55.29
2022-08-09T16:51:08.241Z,55.95
2022-08-09T16:53:37.489Z,56.58
2022-08-09T16:56:10.411Z,56.76
2022-08-09T16:58:42.629Z,57.42
2022-08-09T17:01:24.528Z,57.90
2022-08-09T17:03:54.458Z,58.38
2022-08-09T17:06:31.237Z,58.99
2022-08-09T17:09:17.559Z,59.63
2022-08-09T17:11:52.448Z,60.50
2022-08-09T17:14:26.057Z,61.12
2022-08-09T17:17:00.030Z,62.33
2022-08-09T17:19:46.545Z,63.30
2022-08-09T17:22:15.232Z,64.00
2022-08-09T17:24:47.960Z,64.60
2022-08-09T17:27:23.763Z,65.25
2022-08-09T17:29:52.029Z,65.34
2022-08-09T17:32:35.147Z,65.71
2022-08-09T17:35:12.206Z,65.76
2022-08-09T17:38:11.377Z,66.02
2022-08-09T17:40:32.151Z,66.25
2022-08-09T17:43:33.072Z,66.48
2022-08-09T17:46:03.994Z,66.91
2022-08-09T17:48:40.286Z,67.14
2022-08-09T17:51:19.277Z,67.28
2022-08-09T17:53:51.982Z,67.41
2022-08-09T17:56:27.529Z,67.83
2022-08-09T17:59:03.029Z,67.99
2022-08-09T18:02:03.717Z,68.57
2022-08-09T18:04:24.549Z,68.87
2022-08-09T18:06:54.870Z,69.02
2022-08-09T18:09:40.704Z,69.53
2022-08-09T18:12:19.568Z,69.91
2022-08-09T18:14:54.161Z,70.01
2022-08-09T18:18:02.136Z,70.38
2022-08-09T18:21:00.195Z,70.15
2022-08-09T18:23:07.067Z,70.20
2022-08-09T18:25:50.913Z,70.51
2022-08-09T18:30:39.959Z,70.76
2022-08-09T18:31:19.222Z,71.34
2022-08-09T18:34:00.412Z,71.40
2022-08-09T18:36:32.100Z,71.75
2022-08-09T18:39:07.248Z,72.16
2022-08-09T18:41:52.231Z,72.72
2022-08-09T18:44:22.854Z,73.19
2022-08-09T18:47:08.178Z,73.76
2022-08-09T18:49:41.742Z,74.15
2022-08-09T18:52:13.700Z,74.68
2022-08-09T18:54:52.112Z,75.32
2022-08-09T18:57:23.185Z,75.46
2022-08-09T18:59:55.587Z,76.14
2022-08-09T19:02:31.739Z,76.60
2022-08-09T19:05:19.906Z,76.54
2022-08-09T19:08:04.138Z,76.81
2022-08-09T19:10:39.838Z,77.02
2022-08-09T19:13:19.976Z,77.41
2022-08-09T19:15:52.459Z,77.70
2022-08-09T19:18:32.915Z,77.86
2022-08-09T19:21:09.407Z,78.17
2022-08-09T19:24:36.192Z,78.13
2022-08-09T19:26:32.387Z,78.70
2022-08-09T19:29:17.646Z,78.86
2022-08-09T19:31:49.535Z,79.05
2022-08-09T19:34:23.172Z,79.41
2022-08-09T19:36:54.395Z,79.74
2022-08-09T19:39:29.213Z,80.22
2022-08-09T19:42:15.137Z,80.58
2022-08-09T19:44:50.545Z,80.88
2022-08-09T19:47:23.288Z,80.86
2022-08-09T19:50:07.976Z,81.38
2022-08-09T19:52:51.867Z,81.73
2022-08-09T19:55:30.454Z,82.18
2022-08-09T19:58:16.526Z,83.05
2022-08-09T20:00:46.838Z,83.26
2022-08-09T20:04:17.308Z,83.71
2022-08-09T20:06:22.254Z,83.94
2022-08-09T20:08:52.222Z,84.92
2022-08-09T20:11:26.251Z,85.31
2022-08-09T20:13:55.799Z,86.09
2022-08-09T20:16:33.142Z,86.12
2022-08-09T20:19:47.595Z,86.59
2022-08-09T20:21:55.042Z,88.11
2022-08-09T20:24:29.877Z,88.90
2022-08-09T20:27:05.597Z,88.43
2022-08-09T20:29:39.662Z,88.69
2022-08-09T20:32:29.195Z,89.76
2022-08-09T20:34:58.039Z,91.43
2022-08-09T20:37:37.106Z,92.16
2022-08-09T20:40:19.153Z,92.66
2022-08-09T20:43:18.135Z,93.46
2022-08-09T20:46:00.357Z,94.10
2022-08-09T20:48:31.545Z,94.27
2022-08-09T20:51:01.205Z,94.12
2022-08-09T20:53:36.148Z,93.73
2022-08-09T20:56:20.347Z,93.28
2022-08-09T20:58:54.579Z,93.09
2022-08-09T21:01:34.342Z,93.28
2022-08-09T21:05:54.546Z,93.90
2022-08-09T21:07:11.695Z,93.67
2022-08-09T21:09:55.707Z,94.16
2022-08-09T21:15:17.685Z,94.61
2022-08-09T21:18:11.465Z,95.57
2022-08-09T21:20:43.238Z,97.25
2022-08-09T21:23:13.176Z,96.84
2022-08-09T21:25:59.856Z,96.88
2022-08-09T21:28:35.813Z,96.68
2022-08-09T21:31:18.147Z,97.61
2022-08-09T21:33:52.371Z,97.81
2022-08-09T21:36:28.030Z,98.17
2022-08-09T21:38:59.225Z,99.67
2022-08-09T21:42:05.478Z,99.99
2022-08-09T21:44:33.545Z,100.00
2022-08-09T21:47:05.105Z,100.00
2022-08-09T21:49:39.571Z,100.00
2022-08-09T21:52:18.106Z,100.00
2022-08-09T21:54:59.439Z,100.00
2022-08-09T21:57:39.635Z,100.00
2022-08-09T22:00:32.361Z,100.00
2022-08-09T22:03:05.730Z,100.00
2022-08-09T22:05:37.460Z,100.00
2022-08-09T22:08:13.801Z,100.00
2022-08-09T22:11:00.786Z,100.00
2022-08-09T22:13:36.590Z,100.00
2022-08-09T22:16:07.724Z,100.00
2022-08-09T22:18:52.981Z,100.00
2022-08-09T22:21:27.429Z,100.00
2022-08-09T22:24:17.280Z,100.00
2022-08-09T22:26:51.486Z,100.00
2022-08-09T22:29:28.785Z,100.00
2022-08-09T22:32:00.474Z,100.00
2022-08-09T22:34:28.579Z,100.00
2022-08-09T22:36:57.788Z,100.00
2022-08-09T22:39:57.569Z,100.00
2022-08-09T22:42:22.337Z,100.00
2022-08-09T22:48:05.121Z,100.00
2022-08-09T22:48:16.715Z,100.00
2022-08-09T22:50:32.220Z,100.00
2022-08-09T22:53:03.799Z,100.00
2022-08-09T22:56:06.304Z,100.00
2022-08-09T22:58:32.542Z,100.00
2022-08-09T23:01:03.377Z,100.00
2022-08-09T23:04:03.672Z,100.00
2022-08-09T23:06:35.024Z,100.00
2022-08-09T23:09:06.028Z,100.00
2022-08-09T23:11:34.638Z,100.00
2022-08-09T23:14:03.709Z,100.00
2022-08-09T23:16:32.120Z,100.00
2022-08-09T23:19:01.055Z,100.00
2022-08-09T23:21:33.480Z,100.00
2022-08-09T23:24:07.169Z,100.00
2022-08-09T23:26:36.939Z,100.00
2022-08-09T23:29:07.070Z,100.00
2022-08-09T23:31:35.082Z,100.00
2022-08-09T23:34:03.821Z,100.00
2022-08-09T23:36:33.398Z,100.00
2022-08-09T23:39:02.064Z,100.00
2022-08-09T23:41:29.988Z,100.00
2022-08-09T23:43:59.855Z,100.00
2022-08-09T23:46:29.024Z,100.00
2022-08-09T23:48:58.205Z,100.00
2022-08-09T23:51:26.891Z,100.00
2022-08-09T23:54:02.088Z,100.00
2022-08-09T23:56:52.885Z,100.00
2022-08-09T23:59:21.600Z,100.00
